Airfield :
LOGIN :

Register | Disclaimer

   EN    FR    IT 

 










Legend :    VFR   Marginal VFR   IFR   Intensive IFR   Very Intensive IFR
Visi :
Ceiling :
>= 8 km
>= 3000ft
5 to 8 km
1000 to 3000 ft
1500m to 5 km
500 to 1000 ft
800 to 1500m
200 to 500 ft
< 800m
< 200 ft
Symbols :   Thunderstorms  Fog  Heavy snow  Heavy precipitations  Wind > 20 kt
SIGMETs :     Misc.  Thunderstorms  Icing  Turbulence  Mountain Waves  Volcanic Ashes






- Airport Elevation : 574 ft
- IATA code : TEQ


LTBU - Corlu

CURRENT METAR :
  • 211520Z 02012KT 9999 FEW035 BKN100 14/11 Q1017 RMK RWY22 04010KT

EXPIRED METARs :
  • 211450Z 02013KT 9999 FEW035 BKN100 14/11 Q1016 RMK RWY22 05009KT
  • 211420Z 03013KT 9999 FEW035 BKN100 15/11 Q1016 RMK RWY22 05009KT
  • 211350Z 03013KT CAVOK 16/11 Q1016 RMK RWY22 05013KT
  • 211320Z 02014KT CAVOK 17/11 Q1016 RMK RWY22 05012KT
  • 211250Z 03012KT CAVOK 18/11 Q1016 RMK RWY22 06010KT 030V090

TAF TAF LTBU
Valid from the 21 at 12:00 until the 22 at 12:00 UTC


211040Z 2112/2212 06010KT CAVOK
BECMG 2116/2119 SCT030 BKN100
BECMG 2122/2201 04020KT SCT010 BKN025
PROB40
TEMPO 2208/2212 -SHRA



MET'MAP, your aeronautical weather chart ! - Copyright ORBIFLY December 2007 - Disclaimer

ORBIFLY MET'MAP TEAM :

Programming & Development : Alexandra Zaïnal
Concept & Development : Baudouin d'Aumeries
Co-Development & Prog : Marc-Olivier Méhu
Technical & hardware support : Manuel Goepfert

Contact : metmap@orbifly.com




SOURCES & CREDITS :

   NOAA